CheckWX is a tool to help pilots better visualize weather data.  It is not intended as a substitute for an official pre-flight weather briefing.

02:47:52 UTC

KPCD METAR
Perryville Regional Airport
Perryville, Missouri, USA
Current

33 mins ago

KPCD 230215Z AUTO 10003KT 7SM -RA SCT026 BKN050 OVC070 22/22 A2997 RMK AO2 T02210217
Observed
Sep-23 @ 02:15 UTC
Wind
  • 100° at 3 KTS
Visibility
7 SM
Flight Rules
VFR
Conditions
Light Rain
Cloud Levels
  • Scattered at 2,600' AGL
  • Broken at 5,000' AGL
  • Overcast at 7,000' AGL
Temperature
22°C / 72°F
Dewpoint
22°C / 72°F
Humidity
100%
Altimeter
29.97" Hg
Pressure
1014.92 hPa
Previous

53 mins ago

KPCD 230155Z AUTO 00000KT 7SM +RA BKN045 OVC060 22/22 A2998 RMK AO2 T02210216
Observed
Sep-23 @ 01:55 UTC
Visibility
7 SM
Flight Rules
VFR
Conditions
Heavy Rain
Cloud Levels
  • Broken at 4,500' AGL
  • Overcast at 6,000' AGL
Temperature
22°C / 72°F
Dewpoint
22°C / 72°F
Humidity
100%
Altimeter
29.98" Hg
Pressure
1015.22 hPa
Previous

1 hour ago

KPCD 230135Z AUTO 00000KT 10SM -RA SCT023 BKN043 OVC060 22/22 A2996 RMK AO2 T02200215
Observed
Sep-23 @ 01:35 UTC
Visibility
10 SM
Flight Rules
VFR
Conditions
Light Rain
Cloud Levels
  • Scattered at 2,300' AGL
  • Broken at 4,300' AGL
  • Overcast at 6,000' AGL
Temperature
22°C / 72°F
Dewpoint
22°C / 72°F
Humidity
100%
Altimeter
29.96" Hg
Pressure
1014.52 hPa